createdAt,value
2017-10-12T00:01:05.674Z,2.13
2017-10-12T00:03:33.449Z,2.10
2017-10-12T00:06:01.112Z,2.27
2017-10-12T00:08:29.229Z,1.63
2017-10-12T00:10:56.923Z,1.90
2017-10-12T00:13:24.629Z,1.40
2017-10-12T00:15:52.403Z,2.00
2017-10-12T00:18:20.089Z,1.63
2017-10-12T00:20:47.850Z,1.93
2017-10-12T00:23:15.894Z,1.40
2017-10-12T00:25:43.596Z,2.00
2017-10-12T00:28:11.675Z,1.30
2017-10-12T00:30:39.381Z,1.20
2017-10-12T00:33:07.100Z,2.07
2017-10-12T00:35:34.873Z,1.10
2017-10-12T00:38:02.582Z,1.77
2017-10-12T00:40:30.329Z,1.17
2017-10-12T00:42:58.056Z,1.50
2017-10-12T00:45:25.872Z,1.60
2017-10-12T00:47:53.606Z,1.23
2017-10-12T00:50:21.313Z,1.60
2017-10-12T00:52:49.082Z,1.50
2017-10-12T00:55:16.810Z,1.43
2017-10-12T00:57:44.500Z,1.47
2017-10-12T01:00:12.340Z,2.00
2017-10-12T01:02:41.477Z,1.20
2017-10-12T01:05:09.280Z,1.67
2017-10-12T01:07:37.100Z,0.87
2017-10-12T01:10:04.862Z,1.20
2017-10-12T01:12:32.635Z,1.17
2017-10-12T01:15:00.333Z,1.40
2017-10-12T01:17:28.021Z,1.10
2017-10-12T01:19:55.852Z,1.30
2017-10-12T01:22:23.684Z,1.70
2017-10-12T01:24:51.533Z,1.73
2017-10-12T01:27:19.311Z,1.33
2017-10-12T01:29:47.452Z,1.33
2017-10-12T01:32:15.495Z,2.00
2017-10-12T01:34:43.217Z,1.47
2017-10-12T01:37:11.015Z,1.20
2017-10-12T01:39:38.806Z,1.40
2017-10-12T01:42:07.204Z,1.10
2017-10-12T01:44:34.919Z,1.90
2017-10-12T01:47:02.678Z,1.73
2017-10-12T01:49:30.420Z,1.73
2017-10-12T01:51:58.135Z,2.40
2017-10-12T01:54:25.900Z,1.70
2017-10-12T01:56:53.722Z,3.00
2017-10-12T01:59:21.421Z,2.50
2017-10-12T02:01:49.157Z,2.00
2017-10-12T02:04:16.955Z,3.30
2017-10-12T02:06:44.731Z,5.00
2017-10-12T02:09:12.446Z,4.07
2017-10-12T02:11:40.282Z,3.17
2017-10-12T02:14:08.012Z,2.70
2017-10-12T02:16:35.703Z,2.40
2017-10-12T02:19:03.510Z,4.40
2017-10-12T02:21:31.250Z,2.57
2017-10-12T02:23:59.080Z,2.00
2017-10-12T02:26:26.916Z,2.27
2017-10-12T02:28:54.756Z,1.90
2017-10-12T02:31:22.482Z,2.20
2017-10-12T02:33:50.359Z,2.70
2017-10-12T02:36:19.204Z,2.17
2017-10-12T02:38:46.955Z,3.60
2017-10-12T02:41:14.718Z,1.70
2017-10-12T02:43:42.506Z,2.17
2017-10-12T02:46:10.359Z,1.90
2017-10-12T02:48:38.055Z,2.97
2017-10-12T02:51:05.801Z,2.63
2017-10-12T02:53:33.579Z,2.47
2017-10-12T02:56:01.274Z,2.63
2017-10-12T02:58:28.975Z,3.10
2017-10-12T03:00:57.136Z,2.87
2017-10-12T03:03:24.868Z,2.80
2017-10-12T03:05:52.630Z,2.67
2017-10-12T03:08:20.323Z,3.10
2017-10-12T03:10:48.063Z,3.00
2017-10-12T03:13:15.752Z,3.43
2017-10-12T03:15:43.476Z,4.87
2017-10-12T03:18:11.205Z,4.03
2017-10-12T03:20:38.983Z,4.90
2017-10-12T03:23:06.758Z,3.10
2017-10-12T03:25:34.502Z,3.67
2017-10-12T03:28:02.221Z,7.63
2017-10-12T03:30:29.933Z,8.27
2017-10-12T03:32:57.621Z,9.27
2017-10-12T03:35:25.429Z,5.00
2017-10-12T03:37:53.172Z,3.87
2017-10-12T03:40:21.156Z,4.50
2017-10-12T03:42:48.933Z,6.47
2017-10-12T03:45:16.650Z,4.50
2017-10-12T03:47:44.391Z,3.77
2017-10-12T03:50:12.158Z,4.57
2017-10-12T03:52:39.849Z,3.50
2017-10-12T03:55:07.594Z,4.50
2017-10-12T03:57:35.932Z,4.30
2017-10-12T04:00:03.682Z,3.60
2017-10-12T04:02:31.418Z,5.10
2017-10-12T04:04:59.159Z,4.30
2017-10-12T04:07:26.844Z,4.93
2017-10-12T04:09:54.638Z,6.30
2017-10-12T04:12:22.325Z,5.60
2017-10-12T04:14:50.491Z,6.20
2017-10-12T04:17:18.827Z,6.33
2017-10-12T04:19:46.582Z,4.80
2017-10-12T04:22:14.258Z,5.40
2017-10-12T04:24:42.017Z,5.47
2017-10-12T04:27:09.767Z,4.47
2017-10-12T04:29:37.462Z,4.97
2017-10-12T04:32:05.170Z,4.67
2017-10-12T04:34:32.919Z,3.60
2017-10-12T04:37:00.634Z,5.90
2017-10-12T04:39:28.442Z,6.57
2017-10-12T04:41:56.132Z,5.57
2017-10-12T04:44:23.881Z,5.20
2017-10-12T04:46:51.647Z,4.20
2017-10-12T04:49:19.347Z,5.83
2017-10-12T04:51:47.067Z,5.30
2017-10-12T04:54:14.801Z,4.20
2017-10-12T04:56:42.564Z,3.63
2017-10-12T04:59:10.337Z,3.70
2017-10-12T05:01:38.096Z,4.07
2017-10-12T05:04:05.802Z,5.50
2017-10-12T05:06:33.481Z,8.20
2017-10-12T05:09:01.350Z,19.20
2017-10-12T05:11:29.054Z,14.90
2017-10-12T05:13:56.780Z,12.30
2017-10-12T05:16:24.524Z,9.53
2017-10-12T05:18:52.232Z,8.47
2017-10-12T05:21:20.037Z,5.00
2017-10-12T05:23:47.778Z,3.23
2017-10-12T05:26:15.551Z,4.70
2017-10-12T05:28:43.236Z,5.77
2017-10-12T05:31:10.928Z,4.57
2017-10-12T05:33:38.650Z,4.00
2017-10-12T05:36:06.382Z,7.13
2017-10-12T05:38:34.191Z,3.97
2017-10-12T05:41:02.017Z,5.70
2017-10-12T05:43:29.783Z,5.20
2017-10-12T05:45:57.548Z,5.03
2017-10-12T05:48:25.334Z,4.03
2017-10-12T05:50:53.022Z,4.97
2017-10-12T05:53:20.726Z,7.47
2017-10-12T05:55:48.466Z,4.97
2017-10-12T05:58:16.293Z,5.77
2017-10-12T06:00:43.960Z,4.53
2017-10-12T06:03:11.658Z,5.60
2017-10-12T06:05:39.530Z,4.27
2017-10-12T06:08:07.256Z,4.77
2017-10-12T06:10:35.049Z,3.00
2017-10-12T06:13:02.920Z,3.90
2017-10-12T06:15:30.695Z,3.80
2017-10-12T06:17:58.407Z,5.13
2017-10-12T06:20:26.267Z,4.67
2017-10-12T06:22:54.168Z,4.20
2017-10-12T06:25:21.909Z,3.77
2017-10-12T06:27:49.660Z,4.40
2017-10-12T06:30:19.515Z,3.53
2017-10-12T06:32:48.252Z,3.60
2017-10-12T06:35:15.998Z,3.90
2017-10-12T06:37:43.786Z,3.90
2017-10-12T06:40:11.468Z,3.20
2017-10-12T06:42:39.304Z,7.47
2017-10-12T06:45:07.138Z,5.50
2017-10-12T06:47:34.838Z,3.80
2017-10-12T06:50:02.627Z,4.60
2017-10-12T06:52:30.430Z,5.47
2017-10-12T06:54:58.217Z,3.43
2017-10-12T06:57:26.138Z,5.63
2017-10-12T06:59:53.912Z,7.57
2017-10-12T07:02:21.637Z,6.80
2017-10-12T07:04:49.404Z,4.53
2017-10-12T07:07:17.078Z,9.20
2017-10-12T07:09:44.920Z,5.20
2017-10-12T07:12:12.680Z,4.37
2017-10-12T07:14:40.439Z,5.77
2017-10-12T07:17:08.924Z,6.20
2017-10-12T07:19:36.690Z,6.30
2017-10-12T07:22:04.450Z,4.73
2017-10-12T07:24:32.144Z,4.17
2017-10-12T07:27:00.793Z,4.40
2017-10-12T07:29:28.515Z,4.47
2017-10-12T07:31:56.485Z,4.30
2017-10-12T07:34:24.195Z,3.50
2017-10-12T07:36:51.884Z,3.47
2017-10-12T07:39:19.653Z,1.93
2017-10-12T07:41:47.382Z,2.03
2017-10-12T07:44:15.249Z,1.90
2017-10-12T07:46:43.014Z,1.80
2017-10-12T07:49:10.787Z,3.03
2017-10-12T07:51:39.178Z,3.60
2017-10-12T07:54:06.910Z,3.53
2017-10-12T07:56:34.690Z,3.10
2017-10-12T07:59:02.419Z,3.47
2017-10-12T08:01:30.229Z,3.50
2017-10-12T08:03:57.969Z,2.60
2017-10-12T08:06:25.821Z,2.53
2017-10-12T08:08:53.563Z,3.00
2017-10-12T08:11:21.309Z,2.03
2017-10-12T08:13:49.168Z,2.80
2017-10-12T08:16:16.995Z,2.77
2017-10-12T08:18:44.697Z,1.90
2017-10-12T08:21:12.413Z,2.70
2017-10-12T08:23:40.186Z,2.30
2017-10-12T08:26:07.951Z,2.17
2017-10-12T08:28:35.679Z,1.97
2017-10-12T08:31:03.429Z,2.00
2017-10-12T08:33:31.119Z,2.23
2017-10-12T08:35:58.806Z,2.70
2017-10-12T08:38:26.572Z,2.30
2017-10-12T08:40:54.293Z,2.60
2017-10-12T08:43:22.000Z,2.10
2017-10-12T08:45:49.903Z,2.60
2017-10-12T08:48:17.653Z,2.30
2017-10-12T08:50:45.382Z,2.53
2017-10-12T08:53:13.124Z,2.10
2017-10-12T08:55:40.897Z,2.00
2017-10-12T08:58:08.623Z,2.47
2017-10-12T09:00:36.430Z,2.80
2017-10-12T09:03:04.191Z,2.20
2017-10-12T09:05:31.880Z,2.30
2017-10-12T09:07:59.616Z,2.17
2017-10-12T09:10:27.409Z,1.90
2017-10-12T09:12:55.094Z,2.03
2017-10-12T09:15:22.876Z,2.20
2017-10-12T09:17:50.724Z,2.30
2017-10-12T09:20:18.468Z,2.30
2017-10-12T09:22:46.539Z,2.20
2017-10-12T09:25:14.385Z,2.03
2017-10-12T09:27:42.127Z,2.03
2017-10-12T09:30:09.832Z,2.00
2017-10-12T09:32:37.638Z,2.00
2017-10-12T09:35:05.503Z,2.10
2017-10-12T09:37:33.283Z,2.07
2017-10-12T09:40:01.003Z,2.60
2017-10-12T09:42:28.894Z,3.23
2017-10-12T09:44:56.616Z,1.90
2017-10-12T09:47:24.359Z,1.70
2017-10-12T09:49:52.163Z,2.40
2017-10-12T09:52:19.940Z,1.97
2017-10-12T09:54:47.697Z,1.87
2017-10-12T09:57:15.550Z,2.10
2017-10-12T09:59:43.405Z,1.80
2017-10-12T10:02:11.144Z,3.30
2017-10-12T10:04:38.820Z,2.20
2017-10-12T10:07:06.601Z,2.57
2017-10-12T10:09:34.361Z,2.07
2017-10-12T10:12:02.084Z,1.83
2017-10-12T10:14:29.821Z,1.70
2017-10-12T10:16:57.498Z,1.63
2017-10-12T10:19:25.198Z,1.80
2017-10-12T10:21:52.959Z,1.80
2017-10-12T10:24:20.662Z,1.93
2017-10-12T10:26:48.538Z,2.07
2017-10-12T10:29:21.926Z,1.77
2017-10-12T10:31:49.872Z,1.60
2017-10-12T10:34:17.576Z,1.47
2017-10-12T10:36:45.285Z,1.60
2017-10-12T10:39:13.033Z,1.63
2017-10-12T10:41:40.795Z,1.70
2017-10-12T10:44:08.532Z,1.33
2017-10-12T10:46:36.455Z,2.80
2017-10-12T10:49:04.200Z,1.70
2017-10-12T10:51:32.022Z,1.90
2017-10-12T10:53:59.726Z,1.73
2017-10-12T10:56:27.555Z,1.27
2017-10-12T10:58:55.428Z,1.60
2017-10-12T11:01:23.244Z,0.90
2017-10-12T11:03:50.942Z,1.67
2017-10-12T11:06:18.677Z,1.40
2017-10-12T11:08:46.374Z,1.47
2017-10-12T11:11:14.144Z,1.10
2017-10-12T11:13:41.899Z,1.30
2017-10-12T11:16:09.641Z,1.40
2017-10-12T11:18:37.363Z,1.10
2017-10-12T11:21:05.310Z,1.80
2017-10-12T11:23:33.087Z,1.33
2017-10-12T11:26:01.029Z,1.00
2017-10-12T11:28:29.563Z,1.20
2017-10-12T11:30:58.217Z,1.80
2017-10-12T11:33:27.905Z,1.27
2017-10-12T11:35:55.642Z,0.83
2017-10-12T11:38:24.249Z,1.77
2017-10-12T11:40:52.035Z,1.63
2017-10-12T11:43:19.785Z,1.57
2017-10-12T11:45:47.561Z,1.37
2017-10-12T11:48:15.376Z,1.00
2017-10-12T11:50:43.186Z,1.00
2017-10-12T11:53:11.696Z,1.27
2017-10-12T11:55:39.535Z,1.00
2017-10-12T11:58:07.436Z,1.37
2017-10-12T12:00:36.323Z,0.70
2017-10-12T12:03:05.261Z,1.27
2017-10-12T12:05:32.988Z,1.23
2017-10-12T12:08:00.817Z,0.80
2017-10-12T12:10:28.688Z,1.20
2017-10-12T12:12:59.286Z,1.47
2017-10-12T12:15:27.035Z,1.13
2017-10-12T12:17:54.840Z,1.20
2017-10-12T12:20:22.603Z,1.03
2017-10-12T12:22:51.346Z,0.73
2017-10-12T12:25:19.195Z,1.50
2017-10-12T12:27:46.971Z,1.03
2017-10-12T12:30:14.909Z,1.00
2017-10-12T12:32:42.663Z,0.77
2017-10-12T12:35:10.441Z,1.20
2017-10-12T12:37:38.224Z,1.43
2017-10-12T12:40:05.978Z,0.97
2017-10-12T12:42:33.755Z,1.00
2017-10-12T12:45:01.490Z,1.07
2017-10-12T12:47:29.421Z,1.27
2017-10-12T12:49:57.121Z,0.80
2017-10-12T12:52:24.981Z,1.17
2017-10-12T12:54:52.725Z,1.53
2017-10-12T12:57:20.474Z,1.70
2017-10-12T12:59:48.243Z,1.63
2017-10-12T13:02:16.266Z,2.10
2017-10-12T13:04:44.041Z,1.00
2017-10-12T13:07:12.595Z,1.13
2017-10-12T13:09:40.368Z,0.90
2017-10-12T13:12:08.093Z,1.30
2017-10-12T13:14:35.851Z,1.10
2017-10-12T13:17:03.595Z,1.53
2017-10-12T13:19:31.335Z,1.20
2017-10-12T13:21:59.144Z,1.20
2017-10-12T13:24:26.849Z,1.20
2017-10-12T13:26:54.590Z,1.57
2017-10-12T13:29:22.346Z,1.37
2017-10-12T13:31:50.094Z,1.57
2017-10-12T13:34:17.886Z,2.20
2017-10-12T13:36:45.608Z,3.17
2017-10-12T13:39:14.267Z,2.90
2017-10-12T13:41:42.078Z,4.47
2017-10-12T13:44:10.105Z,2.33
2017-10-12T13:46:38.178Z,2.50
2017-10-12T13:49:05.987Z,1.57
2017-10-12T13:51:33.784Z,1.30
2017-10-12T13:54:01.593Z,1.10
2017-10-12T13:56:29.345Z,1.33
2017-10-12T13:58:57.133Z,1.70
2017-10-12T14:01:24.990Z,1.70
2017-10-12T14:03:52.708Z,1.80
2017-10-12T14:06:20.488Z,1.57
2017-10-12T14:08:48.281Z,1.50
2017-10-12T14:11:16.832Z,1.50
2017-10-12T14:13:45.033Z,1.23
2017-10-12T14:16:13.674Z,1.60
2017-10-12T14:18:41.504Z,1.80
2017-10-12T14:21:09.262Z,1.87
2017-10-12T14:23:37.194Z,2.00
2017-10-12T14:26:04.967Z,1.63
2017-10-12T14:28:33.013Z,1.53
2017-10-12T14:31:00.875Z,1.90
2017-10-12T14:33:28.708Z,2.03
2017-10-12T14:35:56.941Z,2.00
2017-10-12T14:38:24.695Z,1.77
2017-10-12T14:40:52.409Z,1.97
2017-10-12T14:43:20.279Z,1.80
2017-10-12T14:45:48.461Z,2.63
2017-10-12T14:48:16.219Z,1.83
2017-10-12T14:50:43.961Z,2.23
2017-10-12T14:53:11.697Z,1.70
2017-10-12T14:55:39.414Z,5.47
2017-10-12T14:58:07.169Z,1.93
2017-10-12T15:00:34.883Z,1.80
2017-10-12T15:03:02.814Z,1.50
2017-10-12T15:05:30.926Z,2.60
2017-10-12T15:07:58.740Z,1.90
2017-10-12T15:10:26.609Z,2.13
2017-10-12T15:12:55.837Z,1.97
2017-10-12T15:15:23.600Z,1.87
2017-10-12T15:17:52.027Z,2.10
2017-10-12T15:20:19.834Z,2.23
2017-10-12T15:22:47.763Z,2.30
2017-10-12T15:25:15.539Z,2.97
2017-10-12T15:27:43.303Z,2.13
2017-10-12T15:30:11.167Z,3.00
2017-10-12T15:32:38.919Z,2.17
2017-10-12T15:35:06.772Z,1.70
2017-10-12T15:37:34.499Z,2.20
2017-10-12T15:40:02.268Z,2.10
2017-10-12T15:42:30.009Z,2.47
2017-10-12T15:44:57.777Z,2.20
2017-10-12T15:47:25.667Z,1.60
2017-10-12T15:49:53.466Z,3.33
2017-10-12T15:52:21.230Z,1.90
2017-10-12T15:54:50.014Z,1.60
2017-10-12T15:57:17.737Z,2.17
2017-10-12T15:59:45.498Z,2.50
2017-10-12T16:02:13.281Z,2.13
2017-10-12T16:04:41.010Z,1.90
2017-10-12T16:07:08.785Z,3.53
2017-10-12T16:09:36.600Z,2.43
2017-10-12T16:12:04.341Z,1.90
2017-10-12T16:14:32.174Z,2.53
2017-10-12T16:16:59.899Z,2.03
2017-10-12T16:19:27.595Z,2.60
2017-10-12T16:21:55.436Z,2.77
2017-10-12T16:24:23.420Z,2.50
2017-10-12T16:26:51.215Z,1.50
2017-10-12T16:29:19.123Z,2.70
2017-10-12T16:31:46.839Z,2.20
2017-10-12T16:34:14.616Z,2.30
2017-10-12T16:36:42.374Z,2.93
2017-10-12T16:39:10.109Z,2.67
2017-10-12T16:41:45.496Z,3.10
2017-10-12T16:44:13.367Z,2.00
2017-10-12T16:46:41.151Z,2.60
2017-10-12T16:49:09.014Z,5.97
2017-10-12T16:51:36.818Z,3.93
2017-10-12T16:54:05.073Z,3.00
2017-10-12T16:56:32.849Z,3.10
2017-10-12T16:59:00.560Z,3.30
2017-10-12T17:01:28.365Z,3.07
2017-10-12T17:03:56.113Z,2.67
2017-10-12T17:06:23.883Z,2.53
2017-10-12T17:08:51.807Z,3.03
2017-10-12T17:11:19.692Z,2.93
2017-10-12T17:13:48.593Z,3.57
2017-10-12T17:16:16.331Z,3.43
2017-10-12T17:18:44.084Z,2.63
2017-10-12T17:21:11.877Z,3.07
2017-10-12T17:26:07.399Z,2.87
2017-10-12T17:28:35.171Z,2.50
2017-10-12T17:31:03.048Z,2.40
2017-10-12T17:33:30.861Z,2.33
2017-10-12T17:35:58.659Z,2.30
2017-10-12T17:38:26.492Z,3.10
2017-10-12T17:40:54.730Z,2.60
2017-10-12T17:43:22.607Z,3.20
2017-10-12T17:45:50.304Z,2.30
2017-10-12T17:48:18.006Z,3.07
2017-10-12T17:50:45.754Z,2.83
2017-10-12T17:53:13.573Z,3.03
2017-10-12T17:55:41.279Z,3.03
2017-10-12T17:58:09.043Z,3.00
2017-10-12T18:00:37.468Z,2.90
2017-10-12T18:03:05.238Z,2.80
2017-10-12T18:05:33.411Z,3.03
2017-10-12T18:08:01.200Z,2.67
2017-10-12T18:10:29.059Z,3.20
2017-10-12T18:12:56.759Z,2.43
2017-10-12T18:15:24.581Z,2.70
2017-10-12T18:17:52.314Z,2.47
2017-10-12T18:20:20.082Z,3.40
2017-10-12T18:22:47.865Z,2.60
2017-10-12T18:25:15.635Z,2.83
2017-10-12T18:27:43.514Z,1.87
2017-10-12T18:30:11.357Z,2.73
2017-10-12T18:32:39.115Z,2.80
2017-10-12T18:35:06.924Z,2.77
2017-10-12T18:37:35.151Z,2.60
2017-10-12T18:40:02.995Z,2.93
2017-10-12T18:42:30.933Z,2.50
2017-10-12T18:44:58.947Z,2.40
2017-10-12T18:47:26.709Z,3.00
2017-10-12T18:52:22.359Z,2.60
2017-10-12T18:54:50.153Z,2.53
2017-10-12T18:57:17.905Z,2.70
2017-10-12T18:59:45.688Z,5.17
2017-10-12T19:02:13.451Z,3.60
2017-10-12T19:04:41.400Z,3.00
2017-10-12T19:07:09.188Z,2.87
2017-10-12T19:09:36.961Z,2.73
2017-10-12T19:12:04.813Z,2.90
2017-10-12T19:14:32.613Z,2.23
2017-10-12T19:17:00.449Z,2.83
2017-10-12T19:19:28.195Z,2.97
2017-10-12T19:21:56.247Z,2.63
2017-10-12T19:24:24.084Z,2.60
2017-10-12T19:26:51.972Z,3.03
2017-10-12T19:29:19.727Z,3.10
2017-10-12T19:31:47.552Z,2.53
2017-10-12T19:34:15.301Z,4.13
2017-10-12T19:36:44.279Z,3.67
2017-10-12T19:39:11.967Z,2.40
2017-10-12T19:44:13.640Z,2.50
2017-10-12T19:46:41.656Z,2.93
2017-10-12T19:49:09.423Z,3.50
2017-10-12T19:51:37.171Z,3.00
2017-10-12T19:54:04.943Z,3.13
2017-10-12T19:56:32.690Z,2.90
2017-10-12T20:01:29.330Z,4.47
2017-10-12T20:03:58.553Z,2.90
2017-10-12T20:06:27.311Z,2.10
2017-10-12T20:08:55.168Z,2.97
2017-10-12T20:11:22.878Z,3.20
2017-10-12T20:14:20.112Z,3.00
2017-10-12T20:16:18.625Z,2.70
2017-10-12T20:21:14.086Z,2.70
2017-10-12T20:23:41.971Z,2.90
2017-10-12T20:26:09.804Z,2.47
2017-10-12T20:28:37.686Z,2.60
2017-10-12T20:31:05.464Z,2.93
2017-10-12T20:33:33.168Z,2.47
2017-10-12T20:36:00.981Z,2.70
2017-10-12T20:38:28.793Z,3.10
2017-10-12T20:40:56.476Z,3.37
2017-10-12T20:43:24.229Z,2.87
2017-10-12T20:45:51.982Z,2.60
2017-10-12T20:48:19.736Z,3.00
2017-10-12T20:50:47.511Z,3.37
2017-10-12T20:53:15.234Z,2.30
2017-10-12T20:55:43.014Z,3.10
2017-10-12T20:58:10.864Z,2.60
2017-10-12T21:00:38.935Z,2.80
2017-10-12T21:03:06.711Z,2.67
2017-10-12T21:08:02.407Z,2.50
2017-10-12T21:10:30.160Z,2.90
2017-10-12T21:12:57.928Z,3.30
2017-10-12T21:15:25.712Z,2.37
2017-10-12T21:17:53.415Z,2.80
2017-10-12T21:20:21.224Z,2.73
2017-10-12T21:22:49.017Z,3.00
2017-10-12T21:25:16.741Z,3.20
2017-10-12T21:27:44.504Z,3.10
2017-10-12T21:30:12.294Z,2.90
2017-10-12T21:35:14.362Z,2.87
2017-10-12T21:37:43.322Z,4.70
2017-10-12T21:40:11.349Z,2.50
2017-10-12T21:42:39.144Z,3.30
2017-10-12T21:45:06.882Z,3.37
2017-10-12T21:47:34.591Z,3.00
2017-10-12T21:50:02.407Z,3.40
2017-10-12T21:52:30.172Z,3.33
2017-10-12T21:54:57.924Z,2.80
2017-10-12T21:57:25.688Z,2.50
2017-10-12T21:59:53.443Z,3.23
2017-10-12T22:02:21.392Z,2.73
2017-10-12T22:04:49.124Z,3.50
2017-10-12T22:07:16.906Z,2.87
2017-10-12T22:09:44.721Z,3.43
2017-10-12T22:12:13.516Z,3.77
2017-10-12T22:14:41.263Z,4.57
2017-10-12T22:17:08.966Z,2.80
2017-10-12T22:19:36.689Z,2.80
2017-10-12T22:22:04.609Z,3.23
2017-10-12T22:24:32.354Z,3.43
2017-10-12T22:27:00.052Z,3.30
2017-10-12T22:29:27.813Z,3.37
2017-10-12T22:31:55.567Z,2.63
2017-10-12T22:34:23.324Z,2.93
2017-10-12T22:36:51.105Z,3.50
2017-10-12T22:39:18.813Z,3.17
2017-10-12T22:41:46.611Z,2.60
2017-10-12T22:44:14.361Z,2.37
2017-10-12T22:46:42.095Z,2.70
2017-10-12T22:49:09.823Z,3.53
2017-10-12T22:51:37.587Z,2.73
2017-10-12T22:54:05.354Z,2.63
2017-10-12T22:56:33.067Z,2.50
2017-10-12T22:59:00.812Z,2.97
2017-10-12T23:01:28.552Z,2.93
2017-10-12T23:03:56.309Z,2.77
2017-10-12T23:06:24.069Z,3.03
2017-10-12T23:08:51.834Z,2.13
2017-10-12T23:11:19.552Z,2.30
2017-10-12T23:13:47.338Z,2.83
2017-10-12T23:16:15.206Z,2.87
2017-10-12T23:18:43.437Z,2.67
2017-10-12T23:21:11.176Z,2.90
2017-10-12T23:23:39.242Z,3.27
2017-10-12T23:26:07.044Z,2.40
2017-10-12T23:28:34.853Z,2.87
2017-10-12T23:31:02.590Z,2.47
2017-10-12T23:33:30.862Z,2.20
2017-10-12T23:35:58.621Z,2.40
2017-10-12T23:38:26.328Z,2.10
2017-10-12T23:40:54.125Z,2.07
2017-10-12T23:43:22.469Z,1.90
2017-10-12T23:45:50.154Z,1.80
2017-10-12T23:48:18.043Z,1.80
2017-10-12T23:50:45.740Z,2.13
2017-10-12T23:53:13.462Z,2.70
2017-10-12T23:55:41.158Z,2.17
2017-10-12T23:58:09.854Z,2.67
